createdAt,value
2017-07-07T00:01:29.384Z,90.60
2017-07-07T00:03:55.638Z,90.90
2017-07-07T00:06:21.892Z,89.80
2017-07-07T00:08:48.158Z,89.40
2017-07-07T00:11:14.408Z,90.00
2017-07-07T00:13:40.655Z,91.00
2017-07-07T00:17:36.043Z,90.70
2017-07-07T00:20:02.303Z,90.80
2017-07-07T00:22:28.562Z,90.20
2017-07-07T00:24:54.808Z,90.60
2017-07-07T00:27:21.045Z,90.70
2017-07-07T00:29:47.326Z,90.90
2017-07-07T00:32:13.585Z,90.80
2017-07-07T00:34:39.832Z,91.00
2017-07-07T00:37:06.091Z,91.20
2017-07-07T00:39:32.351Z,90.20
2017-07-07T00:41:58.628Z,90.20
2017-07-07T00:44:24.861Z,90.40
2017-07-07T00:46:51.128Z,90.80
2017-07-07T00:49:17.388Z,90.80
2017-07-07T00:51:43.636Z,90.80
2017-07-07T00:54:09.887Z,91.50
2017-07-07T00:56:36.140Z,91.00
2017-07-07T00:59:02.384Z,91.20
2017-07-07T01:01:28.607Z,91.20
2017-07-07T01:03:54.859Z,91.40
2017-07-07T01:06:21.130Z,91.60
2017-07-07T01:08:47.376Z,91.20
2017-07-07T01:11:13.613Z,91.40
2017-07-07T01:13:39.858Z,91.70
2017-07-07T01:17:35.891Z,91.40
2017-07-07T01:20:02.144Z,91.50
2017-07-07T01:22:28.387Z,91.50
2017-07-07T01:24:54.629Z,91.30
2017-07-07T01:27:20.862Z,91.40
2017-07-07T01:29:47.133Z,91.50
2017-07-07T01:32:13.375Z,91.60
2017-07-07T01:34:39.654Z,90.80
2017-07-07T01:37:05.930Z,91.40
2017-07-07T01:39:32.208Z,91.00
2017-07-07T01:41:58.468Z,91.00
2017-07-07T01:44:24.754Z,90.70
2017-07-07T01:46:51.026Z,90.90
2017-07-07T01:49:17.272Z,90.70
2017-07-07T01:51:43.547Z,90.90
2017-07-07T01:54:09.828Z,90.80
2017-07-07T01:56:36.084Z,90.50
2017-07-07T01:59:02.363Z,91.20
2017-07-07T02:01:28.630Z,90.90
2017-07-07T02:03:54.853Z,90.30
2017-07-07T02:06:21.095Z,89.90
2017-07-07T02:08:47.365Z,89.60
2017-07-07T02:11:13.611Z,89.50
2017-07-07T02:13:39.862Z,90.00
2017-07-07T02:17:35.985Z,89.80
2017-07-07T02:20:02.307Z,89.60
2017-07-07T02:22:28.554Z,90.90
2017-07-07T02:24:54.799Z,90.80
2017-07-07T02:27:21.028Z,89.50
2017-07-07T02:29:47.255Z,89.10
2017-07-07T02:32:13.553Z,90.60
2017-07-07T02:34:39.793Z,90.90
2017-07-07T02:37:06.031Z,90.80
2017-07-07T02:39:32.275Z,90.80
2017-07-07T02:41:58.513Z,90.80
2017-07-07T02:44:24.780Z,91.20
2017-07-07T02:46:51.027Z,91.10
2017-07-07T02:49:17.259Z,91.30
2017-07-07T02:51:43.503Z,91.60
2017-07-07T02:54:09.743Z,91.90
2017-07-07T02:56:36.175Z,91.70
2017-07-07T02:59:02.418Z,91.60
2017-07-07T03:01:28.655Z,91.70
2017-07-07T03:03:54.975Z,91.60
2017-07-07T03:06:21.222Z,91.70
2017-07-07T03:08:47.498Z,91.80
2017-07-07T03:11:13.737Z,91.70
2017-07-07T03:13:39.959Z,91.60
2017-07-07T03:17:35.648Z,92.00
2017-07-07T03:20:01.958Z,92.10
2017-07-07T03:22:28.213Z,92.10
2017-07-07T03:24:54.468Z,92.00
2017-07-07T03:27:20.731Z,92.70
2017-07-07T03:29:47.000Z,92.40
2017-07-07T03:32:13.249Z,92.30
2017-07-07T03:34:39.497Z,91.90
2017-07-07T03:37:05.735Z,91.90
2017-07-07T03:39:31.963Z,92.30
2017-07-07T03:41:58.229Z,92.30
2017-07-07T03:44:24.476Z,92.20
2017-07-07T03:46:50.722Z,92.30
2017-07-07T03:49:17.024Z,92.00
2017-07-07T03:51:43.263Z,92.00
2017-07-07T03:54:09.518Z,92.50
2017-07-07T03:56:35.758Z,92.20
2017-07-07T03:59:01.999Z,92.30
2017-07-07T04:01:28.248Z,92.50
2017-07-07T04:03:54.504Z,92.40
2017-07-07T04:06:20.788Z,92.40
2017-07-07T04:08:47.061Z,92.30
2017-07-07T04:11:13.299Z,92.30
2017-07-07T04:13:39.559Z,92.20
2017-07-07T04:17:35.329Z,92.10
2017-07-07T04:20:01.572Z,92.10
2017-07-07T04:22:27.810Z,91.80
2017-07-07T04:24:54.059Z,91.90
2017-07-07T04:27:20.310Z,92.00
2017-07-07T04:29:46.570Z,92.20
2017-07-07T04:32:12.808Z,92.20
2017-07-07T04:34:39.062Z,92.00
2017-07-07T04:37:05.301Z,92.50
2017-07-07T04:39:31.540Z,92.10
2017-07-07T04:41:57.820Z,91.80
2017-07-07T04:44:24.070Z,92.00
2017-07-07T04:46:50.303Z,91.30
2017-07-07T04:49:16.552Z,91.50
2017-07-07T04:51:42.799Z,91.00
2017-07-07T04:54:09.086Z,91.20
2017-07-07T04:56:35.338Z,91.30
2017-07-07T04:59:01.582Z,90.90
2017-07-07T05:01:27.842Z,91.20
2017-07-07T05:03:54.081Z,91.20
2017-07-07T05:06:20.331Z,91.20
2017-07-07T05:08:46.585Z,90.90
2017-07-07T05:11:12.834Z,91.20
2017-07-07T05:13:39.065Z,90.50
2017-07-07T05:17:35.933Z,90.30
2017-07-07T05:20:02.298Z,90.00
2017-07-07T05:22:28.523Z,89.30
2017-07-07T05:24:54.777Z,89.40
2017-07-07T05:27:21.026Z,89.20
2017-07-07T05:29:47.265Z,88.10
2017-07-07T05:32:13.506Z,86.80
2017-07-07T05:34:39.753Z,86.80
2017-07-07T05:37:06.030Z,87.70
2017-07-07T05:39:32.277Z,88.40
2017-07-07T05:41:58.537Z,88.00
2017-07-07T05:44:24.808Z,88.10
2017-07-07T05:46:51.030Z,87.60
2017-07-07T05:49:17.280Z,87.60
2017-07-07T05:51:43.537Z,87.40
2017-07-07T05:54:09.786Z,86.90
2017-07-07T05:56:36.061Z,87.20
2017-07-07T05:59:02.338Z,86.40
2017-07-07T06:01:28.583Z,86.90
2017-07-07T06:03:54.853Z,87.20
2017-07-07T06:06:21.063Z,86.80
2017-07-07T06:08:47.985Z,86.40
2017-07-07T06:11:14.224Z,86.60
2017-07-07T06:13:40.467Z,86.00
2017-07-07T06:17:35.384Z,85.60
2017-07-07T06:20:01.401Z,86.50
2017-07-07T06:22:27.639Z,85.20
2017-07-07T06:24:53.865Z,85.80
2017-07-07T06:30:16.631Z,86.10
2017-07-07T06:32:42.874Z,84.90
2017-07-07T06:35:10.234Z,86.10
2017-07-07T06:37:36.533Z,86.70
2017-07-07T06:40:02.784Z,85.20
2017-07-07T06:42:29.023Z,85.20
2017-07-07T06:44:55.269Z,84.30
2017-07-07T06:47:21.503Z,84.10
2017-07-07T06:49:47.745Z,84.50
2017-07-07T06:52:14.009Z,83.20
2017-07-07T06:54:40.250Z,84.60
2017-07-07T06:57:06.496Z,84.00
2017-07-07T06:59:33.515Z,84.10
2017-07-07T07:01:59.759Z,83.20
2017-07-07T07:04:26.051Z,82.70
2017-07-07T07:06:52.280Z,83.30
2017-07-07T07:09:18.555Z,83.10
2017-07-07T07:11:44.786Z,83.30
2017-07-07T07:14:11.023Z,83.70
2017-07-07T07:17:35.524Z,82.00
2017-07-07T07:20:01.792Z,82.40
2017-07-07T07:22:28.054Z,83.40
2017-07-07T07:24:54.303Z,80.90
2017-07-07T07:27:20.565Z,80.80
2017-07-07T07:29:46.796Z,80.70
2017-07-07T07:32:13.030Z,80.10
2017-07-07T07:34:39.300Z,78.10
2017-07-07T07:37:05.515Z,76.80
2017-07-07T07:39:31.740Z,74.60
2017-07-07T07:41:57.969Z,70.10
2017-07-07T07:44:24.220Z,68.20
2017-07-07T07:46:50.471Z,69.10
2017-07-07T07:49:16.695Z,68.90
2017-07-07T07:51:42.966Z,69.20
2017-07-07T07:54:09.196Z,68.40
2017-07-07T07:56:35.468Z,68.50
2017-07-07T07:59:01.703Z,68.10
2017-07-07T08:01:27.952Z,69.20
2017-07-07T08:03:54.188Z,69.30
2017-07-07T08:06:20.437Z,69.00
2017-07-07T08:08:46.696Z,68.00
2017-07-07T08:11:12.942Z,66.70
2017-07-07T08:13:39.179Z,67.00
2017-07-07T08:17:35.520Z,65.20
2017-07-07T08:20:02.251Z,67.50
2017-07-07T08:22:28.496Z,65.40
2017-07-07T08:24:54.738Z,63.70
2017-07-07T08:27:20.979Z,66.20
2017-07-07T08:29:47.225Z,66.20
2017-07-07T08:32:13.491Z,65.70
2017-07-07T08:34:39.748Z,65.30
2017-07-07T08:37:06.010Z,65.90
2017-07-07T08:39:32.248Z,65.20
2017-07-07T08:41:59.229Z,65.40
2017-07-07T08:44:26.172Z,65.10
2017-07-07T08:46:52.401Z,66.50
2017-07-07T08:49:18.623Z,66.90
2017-07-07T08:51:44.863Z,67.20
2017-07-07T08:54:11.099Z,66.20
2017-07-07T08:56:37.366Z,67.30
2017-07-07T08:59:03.596Z,67.90
2017-07-07T09:01:29.843Z,67.80
2017-07-07T09:03:56.093Z,67.20
2017-07-07T09:06:22.339Z,68.00
2017-07-07T09:08:48.608Z,66.00
2017-07-07T09:11:14.986Z,66.10
2017-07-07T09:13:41.228Z,65.30
2017-07-07T09:17:35.436Z,64.50
2017-07-07T09:20:01.702Z,63.30
2017-07-07T09:22:27.957Z,63.90
2017-07-07T09:24:54.260Z,63.40
2017-07-07T09:27:21.263Z,65.00
2017-07-07T09:29:47.505Z,64.40
2017-07-07T09:32:13.751Z,64.20
2017-07-07T09:34:40.755Z,63.60
2017-07-07T09:37:07.014Z,63.00
2017-07-07T09:39:33.249Z,61.20
2017-07-07T09:41:59.515Z,62.40
2017-07-07T09:44:25.755Z,63.70
2017-07-07T09:46:52.016Z,61.70
2017-07-07T09:49:18.331Z,61.80
2017-07-07T09:51:44.590Z,59.60
2017-07-07T09:54:10.848Z,59.60
2017-07-07T09:56:37.114Z,61.30
2017-07-07T09:59:03.379Z,58.60
2017-07-07T10:01:29.644Z,61.10
2017-07-07T10:03:55.884Z,59.00
2017-07-07T10:06:22.155Z,60.60
2017-07-07T10:08:48.395Z,60.10
2017-07-07T10:11:14.695Z,58.80
2017-07-07T10:13:40.935Z,58.70
2017-07-07T10:17:35.502Z,57.60
2017-07-07T10:20:01.755Z,57.60
2017-07-07T10:22:28.039Z,57.90
2017-07-07T10:24:54.289Z,56.90
2017-07-07T10:27:20.519Z,57.20
2017-07-07T10:29:46.779Z,58.50
2017-07-07T10:32:13.062Z,58.30
2017-07-07T10:34:39.323Z,57.50
2017-07-07T10:37:05.720Z,55.50
2017-07-07T10:39:32.125Z,56.10
2017-07-07T10:41:58.370Z,53.80
2017-07-07T10:44:24.616Z,55.00
2017-07-07T10:46:51.176Z,53.40
2017-07-07T10:49:17.415Z,55.10
2017-07-07T10:51:43.673Z,53.90
2017-07-07T10:54:10.020Z,54.40
2017-07-07T10:56:36.298Z,56.30
2017-07-07T10:59:02.723Z,54.00
2017-07-07T11:01:28.959Z,52.20
2017-07-07T11:03:55.345Z,52.30
2017-07-07T11:06:21.585Z,53.50
2017-07-07T11:08:47.848Z,51.00
2017-07-07T11:11:14.423Z,54.10
2017-07-07T11:13:40.668Z,52.80
2017-07-07T11:17:35.422Z,52.40
2017-07-07T11:20:01.696Z,52.50
2017-07-07T11:22:27.947Z,52.00
2017-07-07T11:24:54.233Z,50.20
2017-07-07T11:27:20.517Z,50.40
2017-07-07T11:29:46.767Z,51.10
2017-07-07T11:32:13.068Z,51.20
2017-07-07T11:34:39.320Z,50.20
2017-07-07T11:37:05.557Z,48.90
2017-07-07T11:39:31.810Z,49.70
2017-07-07T11:41:58.057Z,48.70
2017-07-07T11:44:24.317Z,47.90
2017-07-07T11:46:50.565Z,50.10
2017-07-07T11:49:16.808Z,48.20
2017-07-07T11:51:43.055Z,48.80
2017-07-07T11:54:09.295Z,48.50
2017-07-07T11:56:35.561Z,48.60
2017-07-07T11:59:01.804Z,48.20
2017-07-07T12:01:28.052Z,48.70
2017-07-07T12:03:54.295Z,48.30
2017-07-07T12:06:20.540Z,49.50
2017-07-07T12:08:46.806Z,48.10
2017-07-07T12:11:13.035Z,49.60
2017-07-07T12:13:39.277Z,48.20
2017-07-07T12:17:35.613Z,49.10
2017-07-07T12:20:01.930Z,49.00
2017-07-07T12:22:28.742Z,50.00
2017-07-07T12:24:55.012Z,47.60
2017-07-07T12:27:21.260Z,48.90
2017-07-07T12:29:47.502Z,48.90
2017-07-07T12:32:13.759Z,49.30
2017-07-07T12:34:40.011Z,49.60
2017-07-07T12:37:06.291Z,49.20
2017-07-07T12:39:32.540Z,49.10
2017-07-07T12:41:58.796Z,49.30
2017-07-07T12:44:25.043Z,48.40
2017-07-07T12:46:51.266Z,49.70
2017-07-07T12:49:17.528Z,50.60
2017-07-07T12:51:43.770Z,48.10
2017-07-07T12:54:10.039Z,48.40
2017-07-07T12:56:36.269Z,50.20
2017-07-07T12:59:02.514Z,48.60
2017-07-07T13:01:28.769Z,48.40
2017-07-07T13:03:54.993Z,48.10
2017-07-07T13:06:21.232Z,47.60
2017-07-07T13:08:47.471Z,46.90
2017-07-07T13:11:13.700Z,49.30
2017-07-07T13:13:39.984Z,50.00
2017-07-07T13:17:35.480Z,47.80
2017-07-07T13:20:02.211Z,47.90
2017-07-07T13:22:28.448Z,48.40
2017-07-07T13:24:54.681Z,47.90
2017-07-07T13:27:20.935Z,47.50
2017-07-07T13:29:47.172Z,48.20
2017-07-07T13:32:13.425Z,47.70
2017-07-07T13:34:39.680Z,49.30
2017-07-07T13:37:05.948Z,48.30
2017-07-07T13:39:32.191Z,46.40
2017-07-07T13:41:58.476Z,47.70
2017-07-07T13:44:24.748Z,47.80
2017-07-07T13:46:51.003Z,48.60
2017-07-07T13:49:17.262Z,47.10
2017-07-07T13:51:43.520Z,46.10
2017-07-07T13:54:09.763Z,46.10
2017-07-07T13:56:36.010Z,47.80
2017-07-07T13:59:02.276Z,47.40
2017-07-07T14:01:28.516Z,46.70
2017-07-07T14:03:54.771Z,45.70
2017-07-07T14:06:21.059Z,45.80
2017-07-07T14:08:47.332Z,46.60
2017-07-07T14:11:13.567Z,47.30
2017-07-07T14:13:39.816Z,46.90
2017-07-07T14:17:35.573Z,48.40
2017-07-07T14:20:01.901Z,48.80
2017-07-07T14:22:28.312Z,47.50
2017-07-07T14:24:54.601Z,47.60
2017-07-07T14:27:20.869Z,48.40
2017-07-07T14:29:47.193Z,47.00
2017-07-07T14:32:13.495Z,45.50
2017-07-07T14:34:39.728Z,47.10
2017-07-07T14:37:05.985Z,46.70
2017-07-07T14:39:32.235Z,46.80
2017-07-07T14:41:58.474Z,48.70
2017-07-07T14:44:24.731Z,46.00
2017-07-07T14:46:50.984Z,45.40
2017-07-07T14:49:17.284Z,45.90
2017-07-07T14:51:43.553Z,46.90
2017-07-07T14:54:09.806Z,48.00
2017-07-07T14:56:36.036Z,48.20
2017-07-07T14:59:02.283Z,49.50
2017-07-07T15:01:28.507Z,49.50
2017-07-07T15:03:54.760Z,48.80
2017-07-07T15:06:21.023Z,49.50
2017-07-07T15:08:47.259Z,49.60
2017-07-07T15:11:13.521Z,49.70
2017-07-07T15:13:39.788Z,48.20
2017-07-07T15:17:35.563Z,48.70
2017-07-07T15:20:01.823Z,50.40
2017-07-07T15:22:28.138Z,49.90
2017-07-07T15:24:54.380Z,49.50
2017-07-07T15:27:20.612Z,49.90
2017-07-07T15:29:46.867Z,49.50
2017-07-07T15:32:13.144Z,49.90
2017-07-07T15:34:39.397Z,50.50
2017-07-07T15:37:05.639Z,50.70
2017-07-07T15:39:31.882Z,53.30
2017-07-07T15:41:58.200Z,53.80
2017-07-07T15:44:24.419Z,53.10
2017-07-07T15:46:50.654Z,52.10
2017-07-07T15:49:16.895Z,51.40
2017-07-07T15:51:43.146Z,52.20
2017-07-07T15:54:09.391Z,52.30
2017-07-07T15:56:35.650Z,52.20
2017-07-07T15:59:01.889Z,53.30
2017-07-07T16:01:28.134Z,54.60
2017-07-07T16:03:54.383Z,53.20
2017-07-07T16:06:20.648Z,53.60
2017-07-07T16:08:47.645Z,54.10
2017-07-07T16:11:13.893Z,53.80
2017-07-07T16:13:40.149Z,54.70
2017-07-07T16:17:35.606Z,56.10
2017-07-07T16:20:01.896Z,55.40
2017-07-07T16:22:28.127Z,54.90
2017-07-07T16:24:54.373Z,55.60
2017-07-07T16:27:20.629Z,54.90
2017-07-07T16:29:46.889Z,55.50
2017-07-07T16:32:13.171Z,53.60
2017-07-07T16:34:39.433Z,53.50
2017-07-07T16:37:05.692Z,54.50
2017-07-07T16:39:31.923Z,54.30
2017-07-07T16:41:58.189Z,54.30
2017-07-07T16:44:24.491Z,54.40
2017-07-07T16:46:51.475Z,54.00
2017-07-07T16:49:17.711Z,53.40
2017-07-07T16:51:43.953Z,52.80
2017-07-07T16:54:10.200Z,53.10
2017-07-07T16:56:36.470Z,52.70
2017-07-07T16:59:02.741Z,51.70
2017-07-07T17:01:28.973Z,51.50
2017-07-07T17:03:55.215Z,52.10
2017-07-07T17:06:21.464Z,51.40
2017-07-07T17:08:47.733Z,51.00
2017-07-07T17:11:13.988Z,51.00
2017-07-07T17:13:40.264Z,51.50
2017-07-07T17:17:35.601Z,52.00
2017-07-07T17:20:01.905Z,52.60
2017-07-07T17:22:28.173Z,52.70
2017-07-07T17:24:54.568Z,52.40
2017-07-07T17:27:20.830Z,52.80
2017-07-07T17:29:47.080Z,53.10
2017-07-07T17:32:13.367Z,53.80
2017-07-07T17:34:39.627Z,53.50
2017-07-07T17:37:05.877Z,53.80
2017-07-07T17:39:32.129Z,53.70
2017-07-07T17:41:58.423Z,52.70
2017-07-07T17:44:24.683Z,53.20
2017-07-07T17:46:50.924Z,54.10
2017-07-07T17:49:17.173Z,54.60
2017-07-07T17:51:43.424Z,54.60
2017-07-07T17:54:09.715Z,54.70
2017-07-07T17:56:35.968Z,54.20
2017-07-07T17:59:02.223Z,53.60
2017-07-07T18:01:28.470Z,54.40
2017-07-07T18:03:54.722Z,53.80
2017-07-07T18:06:20.997Z,53.80
2017-07-07T18:08:47.263Z,52.90
2017-07-07T18:11:13.504Z,53.40
2017-07-07T18:13:39.752Z,52.50
2017-07-07T18:17:35.870Z,53.70
2017-07-07T18:20:02.122Z,53.20
2017-07-07T18:22:28.371Z,54.00
2017-07-07T18:24:54.620Z,54.20
2017-07-07T18:27:20.876Z,53.90
2017-07-07T18:29:47.156Z,54.30
2017-07-07T18:32:13.396Z,53.40
2017-07-07T18:34:39.664Z,53.80
2017-07-07T18:37:05.904Z,53.70
2017-07-07T18:39:32.163Z,54.20
2017-07-07T18:41:58.455Z,54.40
2017-07-07T18:44:24.687Z,54.90
2017-07-07T18:46:50.937Z,55.30
2017-07-07T18:49:17.187Z,56.20
2017-07-07T18:51:43.444Z,56.10
2017-07-07T18:54:09.726Z,56.40
2017-07-07T18:56:35.968Z,56.30
2017-07-07T18:59:02.226Z,57.00
2017-07-07T19:01:28.444Z,56.40
2017-07-07T19:03:54.696Z,57.40
2017-07-07T19:06:20.972Z,57.40
2017-07-07T19:08:47.232Z,57.80
2017-07-07T19:11:13.476Z,58.50
2017-07-07T19:13:39.714Z,58.90
2017-07-07T19:17:36.366Z,58.90
2017-07-07T19:20:02.661Z,59.50
2017-07-07T19:22:28.924Z,59.50
2017-07-07T19:24:55.194Z,60.40
2017-07-07T19:27:29.244Z,60.30
2017-07-07T19:29:55.518Z,60.20
2017-07-07T19:32:21.811Z,60.80
2017-07-07T19:34:48.093Z,61.10
2017-07-07T19:37:14.361Z,61.70
2017-07-07T19:39:40.644Z,61.40
2017-07-07T19:42:06.923Z,62.30
2017-07-07T19:44:33.232Z,63.30
2017-07-07T19:46:59.494Z,62.30
2017-07-07T19:49:25.750Z,62.50
2017-07-07T19:51:52.010Z,62.60
2017-07-07T19:54:18.256Z,63.00
2017-07-07T19:56:44.533Z,63.10
2017-07-07T19:59:10.769Z,63.50
2017-07-07T20:01:37.010Z,63.20
2017-07-07T20:04:03.255Z,64.00
2017-07-07T20:06:29.753Z,63.30
2017-07-07T20:08:56.008Z,64.10
2017-07-07T20:11:22.245Z,64.20
2017-07-07T20:13:48.533Z,64.00
2017-07-07T20:17:35.132Z,64.70
2017-07-07T20:20:01.406Z,64.60
2017-07-07T20:22:27.742Z,65.00
2017-07-07T20:24:53.987Z,66.90
2017-07-07T20:27:21.155Z,66.40
2017-07-07T20:29:47.399Z,67.00
2017-07-07T20:32:13.701Z,66.60
2017-07-07T20:34:39.948Z,66.20
2017-07-07T20:37:06.217Z,65.60
2017-07-07T20:39:32.477Z,65.70
2017-07-07T20:41:58.743Z,65.50
2017-07-07T20:44:25.012Z,65.10
2017-07-07T20:46:51.270Z,63.50
2017-07-07T20:49:17.545Z,64.30
2017-07-07T20:51:43.800Z,63.90
2017-07-07T20:54:10.081Z,63.90
2017-07-07T20:56:36.324Z,64.90
2017-07-07T20:59:02.578Z,64.30
2017-07-07T21:01:28.822Z,64.80
2017-07-07T21:03:55.076Z,65.00
2017-07-07T21:06:21.360Z,65.40
2017-07-07T21:08:47.623Z,66.10
2017-07-07T21:11:13.891Z,66.10
2017-07-07T21:13:40.150Z,66.30
2017-07-07T21:17:36.728Z,66.80
2017-07-07T21:20:02.997Z,66.70
2017-07-07T21:22:29.292Z,66.90
2017-07-07T21:24:55.552Z,67.30
2017-07-07T21:27:21.820Z,67.60
2017-07-07T21:29:48.094Z,68.00
2017-07-07T21:32:14.345Z,68.20
2017-07-07T21:34:40.621Z,69.20
2017-07-07T21:37:06.887Z,70.00
2017-07-07T21:39:33.282Z,69.50
2017-07-07T21:41:59.564Z,69.40
2017-07-07T21:44:25.874Z,70.00
2017-07-07T21:46:52.121Z,69.80
2017-07-07T21:49:18.426Z,69.90
2017-07-07T21:51:44.686Z,70.70
2017-07-07T21:54:10.947Z,71.00
2017-07-07T21:56:37.213Z,71.90
2017-07-07T21:59:03.451Z,71.70
2017-07-07T22:01:29.694Z,72.00
2017-07-07T22:03:55.951Z,72.50
2017-07-07T22:06:22.209Z,73.40
2017-07-07T22:08:48.463Z,73.80
2017-07-07T22:11:14.697Z,73.00
2017-07-07T22:13:41.054Z,74.00
2017-07-07T22:17:35.587Z,74.50
2017-07-07T22:20:01.862Z,74.80
2017-07-07T22:22:28.103Z,74.00
2017-07-07T22:24:54.350Z,73.60
2017-07-07T22:27:20.582Z,74.00
2017-07-07T22:29:46.805Z,74.50
2017-07-07T22:32:13.094Z,73.90
2017-07-07T22:34:39.348Z,73.90
2017-07-07T22:37:05.594Z,74.30
2017-07-07T22:39:31.878Z,74.60
2017-07-07T22:41:58.134Z,75.00
2017-07-07T22:44:24.394Z,74.10
2017-07-07T22:46:50.641Z,75.10
2017-07-07T22:49:16.875Z,75.00
2017-07-07T22:51:43.098Z,74.50
2017-07-07T22:54:09.333Z,73.70
2017-07-07T22:56:35.587Z,75.30
2017-07-07T22:59:01.814Z,75.50
2017-07-07T23:01:28.050Z,75.80
2017-07-07T23:03:54.279Z,76.50
2017-07-07T23:06:20.510Z,76.80
2017-07-07T23:08:46.765Z,76.90
2017-07-07T23:11:13.010Z,76.10
2017-07-07T23:13:39.276Z,76.30
2017-07-07T23:17:35.259Z,75.70
2017-07-07T23:20:01.529Z,76.40
2017-07-07T23:22:27.750Z,77.00
2017-07-07T23:24:54.002Z,77.30
2017-07-07T23:27:20.225Z,76.70
2017-07-07T23:29:46.455Z,76.60
2017-07-07T23:32:12.708Z,76.70
2017-07-07T23:34:38.933Z,77.50
2017-07-07T23:37:05.165Z,77.80
2017-07-07T23:39:31.409Z,77.70
2017-07-07T23:41:57.640Z,77.10
2017-07-07T23:44:23.911Z,77.40
2017-07-07T23:46:50.188Z,77.20
2017-07-07T23:49:16.432Z,77.40
2017-07-07T23:51:42.655Z,78.10
2017-07-07T23:54:08.891Z,78.60
2017-07-07T23:56:35.115Z,78.70
2017-07-07T23:59:01.377Z,78.30
